Time;durP1;ratioP1;P1;durP2;ratioP2;P2;SDS_P1;SDS_P2;PMS_P1;PMS_P2;Temp;Humidity;BMP_temperature;BMP_pressure;BME280_temperature;BME280_humidity;BME280_pressure;Samples;Min_cycle;Max_cycle;Signal;HPM_P1;HPM_P2
2023/06/20 00:02:10;;;;;;;;;;;;;;;21.43;53.60;101085.25;5111535;28;20008;-76
2023/06/20 00:04:36;;;;;;;;;;;;;;;21.39;55.30;101088.22;5111380;28;19946;-76
2023/06/20 00:07:01;;;;;;;;;;;;;;;21.37;54.79;101093.69;5110070;28;19945;-76
2023/06/20 00:09:26;;;;;;;;;;;;;;;21.33;54.83;101088.59;5111693;28;19923;-76
2023/06/20 00:11:52;;;;;;;;;;;;;;;21.28;54.49;101086.19;5109751;28;20396;-76
2023/06/20 00:14:17;;;;;;;;;;;;;;;21.27;55.12;101087.16;5111246;28;20280;-76
2023/06/20 00:16:42;;;;;;;;;;;;;;;21.23;56.11;101089.16;5110868;28;20266;-76
2023/06/20 00:19:08;;;;;;;;;;;;;;;21.22;55.66;101083.91;5109845;28;19919;-76
2023/06/20 00:21:33;;;;;;;;;;;;;;;21.21;55.17;101082.16;5108778;28;19953;-76
2023/06/20 00:23:59;;;;;;;;;;;;;;;21.17;55.87;101072.53;5111189;28;19972;-76
2023/06/20 00:26:24;;;;;;;;;;;;;;;21.14;56.40;101075.41;5109760;28;20374;-76
2023/06/20 00:28:50;;;;;;;;;;;;;;;21.12;55.44;101072.81;5106185;28;19927;-76
2023/06/20 00:31:16;;;;;;;;;;;;;;;21.10;55.89;101076.59;5111148;28;20006;-76
2023/06/20 00:33:41;;;;;;;;;;;;;;;21.05;54.06;101076.84;5111021;28;20039;-76
2023/06/20 00:36:07;;;;;;;;;;;;;;;21.02;56.20;101072.53;5109618;28;19919;-76
2023/06/20 00:38:32;;;;;;;;;;;;;;;21.01;56.26;101069.94;5121326;27;19915;-76
2023/06/20 00:40:57;;;;;;;;;;;;;;;20.98;56.22;101070.13;5109629;28;19946;-76
2023/06/20 00:43:23;;;;;;;;;;;;;;;20.95;56.62;101071.19;5109537;28;19920;-76
2023/06/20 00:45:49;;;;;;;;;;;;;;;20.91;55.67;101072.31;5118399;27;19919;-77
2023/06/20 00:48:15;;;;;;;;;;;;;;;20.91;56.04;101074.16;5110800;28;19927;-76
2023/06/20 00:50:41;;;;;;;;;;;;;;;20.88;56.30;101066.28;5110632;28;19915;-77
2023/06/20 00:53:06;;;;;;;;;;;;;;;20.86;54.57;101071.72;5109266;28;19955;-77
2023/06/20 00:55:33;;;;;;;;;;;;;;;20.85;55.34;101074.53;5110868;28;19924;-77
2023/06/20 00:58:00;;;;;;;;;;;;;;;20.84;54.87;101068.25;5109189;28;19958;-76
2023/06/20 01:00:29;;;;;;;;;;;;;;;20.83;55.81;101070.09;5110959;28;19919;-76
2023/06/20 01:02:56;;;;;;;;;;;;;;;20.83;55.89;101070.09;5111340;28;19966;-76
2023/06/20 01:05:26;;;;;;;;;;;;;;;20.80;56.05;101070.28;5108599;28;19916;-76
2023/06/20 01:07:59;;;;;;;;;;;;;;;20.80;56.33;101061.34;5118952;28;19935;-76
2023/06/20 01:10:47;;;;;;;;;;;;;;;20.78;57.12;101068.66;5109384;28;19922;-76
2023/06/20 01:13:19;;;;;;;;;;;;;;;20.75;56.32;101053.56;5090868;28;20400;-76
2023/06/20 01:15:44;;;;;;;;;;;;;;;20.71;56.45;101054.69;5098970;28;19931;-77
2023/06/20 01:18:17;;;;;;;;;;;;;;;20.71;56.18;101059.22;5109329;28;19934;-77
2023/06/20 01:20:44;;;;;;;;;;;;;;;20.69;56.00;101061.13;5097428;28;20025;-76
2023/06/20 01:23:13;;;;;;;;;;;;;;;20.69;57.23;101048.53;5104403;28;19937;-76
2023/06/20 01:25:46;;;;;;;;;;;;;;;20.69;56.86;101050.38;5106572;28;19931;-77
2023/06/20 01:28:26;;;;;;;;;;;;;;;20.69;56.34;101047.69;5114735;28;19916;-76
2023/06/20 01:30:59;;;;;;;;;;;;;;;20.67;57.13;101042.38;5114352;28;19951;-76
2023/06/20 01:33:28;;;;;;;;;;;;;;;20.67;56.75;101036.13;5113339;28;20556;-76
2023/06/20 01:35:54;;;;;;;;;;;;;;;20.68;56.71;101046.81;5112900;28;19954;-77
2023/06/20 01:38:22;;;;;;;;;;;;;;;20.69;57.28;101036.91;5126345;27;19999;-76
2023/06/20 01:40:49;;;;;;;;;;;;;;;20.69;56.65;101042.28;5113955;28;19925;-76
2023/06/20 01:43:15;;;;;;;;;;;;;;;20.66;56.86;101043.34;5114396;27;19991;-76
2023/06/20 01:45:41;;;;;;;;;;;;;;;20.67;56.64;101041.53;5124255;27;20029;-77
2023/06/20 01:48:08;;;;;;;;;;;;;;;20.68;56.74;101038.75;5102773;28;19916;-76
2023/06/20 01:50:36;;;;;;;;;;;;;;;20.67;56.47;101025.38;5105683;28;19924;-76
2023/06/20 01:53:04;;;;;;;;;;;;;;;20.66;56.37;101024.50;5107970;28;19916;-76
2023/06/20 01:55:32;;;;;;;;;;;;;;;20.67;56.95;101025.38;5102256;28;19915;-76
2023/06/20 01:57:58;;;;;;;;;;;;;;;20.69;56.56;101026.16;5108114;28;20402;-76
2023/06/20 02:00:26;;;;;;;;;;;;;;;20.69;56.66;101026.16;5107288;28;19923;-76
2023/06/20 02:02:54;;;;;;;;;;;;;;;20.67;56.55;101020.00;5094418;28;19916;-76
2023/06/20 02:05:20;;;;;;;;;;;;;;;20.67;56.84;101028.06;5105468;28;19920;-76
2023/06/20 02:07:46;;;;;;;;;;;;;;;20.66;56.71;101013.75;5099257;28;19915;-76
2023/06/20 02:10:13;;;;;;;;;;;;;;;20.68;55.89;101017.22;5101897;28;19927;-76
2023/06/20 02:12:39;;;;;;;;;;;;;;;20.66;56.88;101010.19;5107697;28;19916;-76
2023/06/20 02:15:06;;;;;;;;;;;;;;;20.66;56.40;101019.13;5112022;28;20010;-76
2023/06/20 02:17:33;;;;;;;;;;;;;;;20.66;56.24;101013.75;5105146;28;19942;-76
2023/06/20 02:19:58;;;;;;;;;;;;;;;20.64;56.44;101007.59;5112013;28;19932;-76
2023/06/20 02:22:25;;;;;;;;;;;;;;;20.64;56.71;101007.59;5106855;28;20023;-76
2023/06/20 02:24:51;;;;;;;;;;;;;;;20.63;56.27;101005.88;5110524;28;19920;-76
2023/06/20 02:27:19;;;;;;;;;;;;;;;20.64;56.15;101007.59;5101277;28;19973;-76
2023/06/20 02:29:45;;;;;;;;;;;;;;;20.65;56.27;101011.13;5098048;28;19920;-76
2023/06/20 02:32:13;;;;;;;;;;;;;;;20.64;56.58;101014.81;5093663;28;19920;-75
2023/06/20 02:34:41;;;;;;;;;;;;;;;20.63;56.67;101002.31;5080374;28;20235;-74
2023/06/20 02:37:07;;;;;;;;;;;;;;;20.64;56.23;101009.41;5111724;28;19916;-75
2023/06/20 02:39:33;;;;;;;;;;;;;;;20.64;56.51;101007.59;5106498;28;20385;-75
2023/06/20 02:41:59;;;;;;;;;;;;;;;20.67;56.48;101009.22;5111588;28;19912;-75
2023/06/20 02:44:25;;;;;;;;;;;;;;;20.66;56.52;101003.00;5111453;28;19939;-75
2023/06/20 02:46:50;;;;;;;;;;;;;;;20.64;56.71;101007.59;5098310;28;19919;-74
2023/06/20 02:49:22;;;;;;;;;;;;;;;20.64;56.19;101002.22;5098580;28;20109;-75
2023/06/20 02:52:07;;;;;;;;;;;;;;;20.63;55.85;101002.31;5109270;28;20374;-75
2023/06/20 02:54:41;;;;;;;;;;;;;;;20.61;55.54;101005.97;5111411;28;19946;-75
2023/06/20 02:57:11;;;;;;;;;;;;;;;20.60;56.22;100998.84;5111128;28;19983;-75
2023/06/20 02:59:37;;;;;;;;;;;;;;;20.60;56.11;101009.63;5111109;28;19967;-74
2023/06/20 03:02:05;;;;;;;;;;;;;;;20.59;55.59;100999.78;5104349;28;20406;-75
2023/06/20 03:04:34;;;;;;;;;;;;;;;20.58;56.38;101000.78;5104062;28;19994;-75
2023/06/20 03:07:01;;;;;;;;;;;;;;;20.58;56.34;101002.59;5110521;28;20317;-75
2023/06/20 03:09:29;;;;;;;;;;;;;;;20.56;55.99;100996.44;5097435;28;19916;-75
2023/06/20 03:11:55;;;;;;;;;;;;;;;20.54;56.35;101001.88;5110846;28;19926;-75
2023/06/20 03:14:20;;;;;;;;;;;;;;;20.52;56.54;101001.09;5112187;28;19916;-75
2023/06/20 03:16:46;;;;;;;;;;;;;;;20.50;56.65;100994.97;5112214;28;19943;-75
2023/06/20 03:19:11;;;;;;;;;;;;;;;20.48;56.70;100994.19;5108555;28;19923;-75
2023/06/20 03:21:39;;;;;;;;;;;;;;;20.44;56.80;100995.31;5086454;28;20291;-75
2023/06/20 03:24:06;;;;;;;;;;;;;;;20.43;56.70;100987.38;5100813;28;19920;-74
2023/06/20 03:26:31;;;;;;;;;;;;;;;20.49;56.12;100995.06;5105385;28;19941;-74
2023/06/20 03:28:57;;;;;;;;;;;;;;;20.50;56.18;100983.31;5108696;28;20394;-74
2023/06/20 03:31:23;;;;;;;;;;;;;;;20.48;56.27;100990.66;5093617;28;20062;-74
2023/06/20 03:33:48;;;;;;;;;;;;;;;20.43;55.02;101001.69;5091251;28;19927;-75
2023/06/20 03:36:13;;;;;;;;;;;;;;;20.41;55.54;100991.00;5108930;28;19943;-74
2023/06/20 03:38:40;;;;;;;;;;;;;;;20.39;56.04;100995.59;5105270;28;19920;-75
2023/06/20 03:41:05;;;;;;;;;;;;;;;20.36;55.84;100992.25;5106411;28;20254;-75
2023/06/20 03:43:31;;;;;;;;;;;;;;;20.33;55.95;101005.88;5110373;28;19920;-75
2023/06/20 03:45:56;;;;;;;;;;;;;;;20.30;57.00;101000.66;5109899;28;19916;-74
2023/06/20 03:48:22;;;;;;;;;;;;;;;20.25;56.50;101008.16;5105993;28;19920;-74
2023/06/20 03:50:47;;;;;;;;;;;;;;;20.21;56.41;101006.63;5110096;28;19920;-75
2023/06/20 03:53:14;;;;;;;;;;;;;;;20.15;56.63;101016.78;5080036;28;19926;-74
2023/06/20 03:55:39;;;;;;;;;;;;;;;20.11;56.67;101019.75;5092937;28;19920;-74
2023/06/20 03:58:05;;;;;;;;;;;;;;;20.06;56.87;101028.06;5104514;28;19920;-74
2023/06/20 04:00:32;;;;;;;;;;;;;;;20.08;56.72;101025.28;5089593;28;19924;-75
2023/06/20 04:02:57;;;;;;;;;;;;;;;20.06;57.17;101029.91;5103417;28;19961;-74
2023/06/20 04:05:24;;;;;;;;;;;;;;;20.04;57.20;101024.59;5109575;28;20010;-74
2023/06/20 04:07:49;;;;;;;;;;;;;;;20.03;57.21;101036.31;5111364;28;20402;-74
2023/06/20 04:10:15;;;;;;;;;;;;;;;20.03;57.65;101030.06;5109999;28;20327;-74
2023/06/20 04:12:41;;;;;;;;;;;;;;;20.03;57.34;101036.31;5103276;28;19964;-74
2023/06/20 04:15:07;;;;;;;;;;;;;;;20.06;58.40;101041.50;5106078;28;20309;-74
2023/06/20 04:17:32;;;;;;;;;;;;;;;20.06;57.30;101044.19;5111101;28;19922;-74
2023/06/20 04:19:59;;;;;;;;;;;;;;;20.06;58.03;101041.50;5108205;28;19934;-75
2023/06/20 04:22:26;;;;;;;;;;;;;;;20.08;58.22;101041.41;5107506;28;19927;-74
2023/06/20 04:24:52;;;;;;;;;;;;;;;20.08;57.87;101031.53;5087150;28;20045;-74
2023/06/20 04:27:18;;;;;;;;;;;;;;;20.09;58.18;101022.50;5097263;28;20284;-74
2023/06/20 04:29:44;;;;;;;;;;;;;;;20.10;58.00;101023.38;5109266;28;19920;-74
2023/06/20 04:32:11;;;;;;;;;;;;;;;20.08;58.19;101018.09;5102561;28;19950;-74
2023/06/20 04:34:37;;;;;;;;;;;;;;;20.10;57.86;101009.91;5092496;28;19920;-75
2023/06/20 04:37:03;;;;;;;;;;;;;;;20.12;57.81;101008.00;5105220;28;20010;-75
2023/06/20 04:39:31;;;;;;;;;;;;;;;20.14;57.66;101014.16;5105228;28;19955;-75
2023/06/20 04:41:57;;;;;;;;;;;;;;;20.17;57.93;101012.16;5076185;28;20348;-75
2023/06/20 04:44:22;;;;;;;;;;;;;;;20.21;57.87;101018.22;5109216;28;20015;-75
2023/06/20 04:46:48;;;;;;;;;;;;;;;20.27;57.95;101015.16;5109210;28;19927;-75
2023/06/20 04:49:13;;;;;;;;;;;;;;;20.33;57.92;101022.88;5108861;28;20327;-75
2023/06/20 04:51:40;;;;;;;;;;;;;;;20.39;57.96;101000.13;5090544;28;19920;-75
2023/06/20 04:54:07;;;;;;;;;;;;;;;20.43;57.04;101006.19;5091941;28;19934;-75
2023/06/20 04:56:32;;;;;;;;;;;;;;;20.50;57.93;101002.16;5100769;28;19935;-75
2023/06/20 04:58:59;;;;;;;;;;;;;;;20.57;57.09;101009.81;5088083;28;20441;-75
2023/06/20 05:01:24;;;;;;;;;;;;;;;20.65;57.88;101003.06;5097108;28;19912;-74
2023/06/20 05:03:50;;;;;;;;;;;;;;;20.75;58.13;101009.66;5110046;28;19924;-75
2023/06/20 05:06:17;;;;;;;;;;;;;;;20.83;57.94;101008.19;5108730;28;19934;-75
2023/06/20 05:08:44;;;;;;;;;;;;;;;20.91;57.45;101002.31;5097422;28;19916;-75
2023/06/20 05:11:09;;;;;;;;;;;;;;;20.98;57.50;100995.59;5108979;28;19916;-75
2023/06/20 05:13:35;;;;;;;;;;;;;;;21.07;57.41;100998.66;5110465;28;19919;-75
2023/06/20 05:16:00;;;;;;;;;;;;;;;21.16;59.62;100995.41;5075054;28;20648;-75
2023/06/20 05:18:26;;;;;;;;;;;;;;;21.19;58.41;100989.81;5110544;28;20001;-74
2023/06/20 05:20:53;;;;;;;;;;;;;;;21.26;58.33;100983.06;5108365;28;19970;-75
2023/06/20 05:23:18;;;;;;;;;;;;;;;21.38;57.73;100973.31;5110143;28;19920;-75
2023/06/20 05:25:44;;;;;;;;;;;;;;;21.47;58.64;100978.16;5108678;28;19916;-75
2023/06/20 05:28:09;;;;;;;;;;;;;;;21.56;56.00;100972.19;5097989;28;20227;-81
2023/06/20 05:30:34;;;;;;;;;;;;;;;21.71;57.49;100967.59;5110033;28;20358;-81
2023/06/20 05:33:00;;;;;;;;;;;;;;;21.84;57.05;100960.41;5099241;28;19916;-81
2023/06/20 05:35:25;;;;;;;;;;;;;;;21.98;57.47;100962.16;5106281;28;19927;-81
2023/06/20 05:37:51;;;;;;;;;;;;;;;22.16;57.66;100964.59;5097172;28;19922;-81
2023/06/20 05:40:16;;;;;;;;;;;;;;;22.31;57.27;100958.19;5111633;28;19959;-82
2023/06/20 05:42:41;;;;;;;;;;;;;;;22.44;57.02;100955.47;5111041;28;20084;-81
2023/06/20 05:45:07;;;;;;;;;;;;;;;22.58;57.00;100957.22;5107131;28;19926;-81
2023/06/20 05:47:33;;;;;;;;;;;;;;;22.67;56.29;100951.16;5110907;28;19963;-82
2023/06/20 05:49:59;;;;;;;;;;;;;;;22.79;54.22;100952.13;5111278;28;20283;-81
2023/06/20 05:52:24;;;;;;;;;;;;;;;22.87;54.24;100947.91;5109360;28;20011;-81
2023/06/20 05:54:53;;;;;;;;;;;;;;;22.91;56.08;100949.41;5109126;28;19947;-81
2023/06/20 05:57:19;;;;;;;;;;;;;;;22.96;55.99;100951.78;5108796;28;20355;-81
2023/06/20 05:59:44;;;;;;;;;;;;;;;23.02;56.82;100954.09;5106262;28;19931;-81
2023/06/20 06:02:10;;;;;;;;;;;;;;;23.10;55.90;100959.78;5110411;28;19920;-82
2023/06/20 06:04:35;;;;;;;;;;;;;;;23.16;54.36;100966.56;5089663;28;19912;-82
2023/06/20 06:07:00;;;;;;;;;;;;;;;23.22;55.75;100970.66;5106160;28;20101;-81
2023/06/20 06:09:26;;;;;;;;;;;;;;;23.21;56.93;100974.34;5107123;28;20086;-81
2023/06/20 06:11:51;;;;;;;;;;;;;;;23.10;56.28;100976.00;5101476;28;19920;-80
2023/06/20 06:14:18;;;;;;;;;;;;;;;23.02;56.59;100974.81;5112918;28;19920;-81
2023/06/20 06:16:44;;;;;;;;;;;;;;;23.01;56.45;100982.03;5103601;28;20332;-79
2023/06/20 06:19:10;;;;;;;;;;;;;;;22.99;56.89;100977.72;5109654;28;19912;-80
2023/06/20 06:21:35;;;;;;;;;;;;;;;22.99;58.57;100972.31;5105577;27;19938;-81
2023/06/20 06:24:00;;;;;;;;;;;;;;;23.00;57.39;100974.94;5111441;28;19927;-81
2023/06/20 06:26:26;;;;;;;;;;;;;;;23.05;55.72;100974.59;5102356;28;19951;-80
2023/06/20 06:28:53;;;;;;;;;;;;;;;23.10;57.11;100973.28;5108478;28;19957;-81
2023/06/20 06:31:24;;;;;;;;;;;;;;;23.11;56.53;100969.59;5109122;28;19971;-80
2023/06/20 06:33:49;;;;;;;;;;;;;;;23.09;56.44;100976.94;5104909;28;20402;-80
2023/06/20 06:36:16;;;;;;;;;;;;;;;23.12;56.55;100984.84;5109884;28;20012;-80
2023/06/20 06:38:41;;;;;;;;;;;;;;;23.21;57.32;100982.44;5090274;28;19928;-81
2023/06/20 06:41:07;;;;;;;;;;;;;;;23.30;56.53;100979.94;5119882;27;19927;-81
2023/06/20 06:43:32;;;;;;;;;;;;;;;23.36;56.88;100982.19;5113899;28;19931;-81
2023/06/20 06:45:58;;;;;;;;;;;;;;;23.45;56.12;100979.78;5113991;28;20346;-81
2023/06/20 06:48:23;;;;;;;;;;;;;;;23.52;56.53;100983.78;5116377;27;20018;-80
2023/06/20 06:50:49;;;;;;;;;;;;;;;23.56;55.73;100985.25;5117161;27;20303;-81
2023/06/20 06:53:14;;;;;;;;;;;;;;;23.58;56.31;100984.16;5115784;27;20397;-81
2023/06/20 06:55:46;;;;;;;;;;;;;;;23.63;57.00;100983.81;5121636;27;19922;-81
2023/06/20 06:58:11;;;;;;;;;;;;;;;23.72;57.17;100979.59;5112497;28;19926;-80
2023/06/20 07:00:37;;;;;;;;;;;;;;;23.82;56.51;100977.94;5109760;28;19924;-81
2023/06/20 07:03:03;;;;;;;;;;;;;;;23.95;56.42;100972.47;5103952;28;19920;-81
2023/06/20 07:05:28;;;;;;;;;;;;;;;24.06;55.89;100968.91;5114055;28;20354;-79
2023/06/20 07:07:53;;;;;;;;;;;;;;;24.13;56.45;100972.88;5113565;28;20352;-80
2023/06/20 07:10:19;;;;;;;;;;;;;;;24.22;56.42;100972.19;5113325;28;20015;-80
2023/06/20 07:12:44;;;;;;;;;;;;;;;24.30;56.62;100968.88;5113264;28;19920;-80
2023/06/20 07:15:10;;;;;;;;;;;;;;;24.39;56.30;100960.91;5113073;28;19920;-80
2023/06/20 07:17:36;;;;;;;;;;;;;;;24.53;56.87;100964.41;5112983;28;19957;-80
2023/06/20 07:20:06;;;;;;;;;;;;;;;24.70;56.38;100971.19;5112798;27;19931;-80
2023/06/20 07:22:31;;;;;;;;;;;;;;;24.83;57.04;100969.25;5106231;28;19912;-81
2023/06/20 07:24:56;;;;;;;;;;;;;;;24.99;55.20;100967.03;5113478;28;19935;-81
2023/06/20 07:27:22;;;;;;;;;;;;;;;25.15;56.31;100949.50;5111486;28;19927;-81
2023/06/20 07:29:47;;;;;;;;;;;;;;;25.25;54.93;100953.25;5112367;28;19920;-80
2023/06/20 07:32:14;;;;;;;;;;;;;;;25.30;55.55;100948.31;5112776;28;19923;-80
2023/06/20 07:34:39;;;;;;;;;;;;;;;25.38;53.52;100944.97;5112512;28;19926;-80
2023/06/20 07:37:05;;;;;;;;;;;;;;;25.47;54.01;100947.78;5111204;28;19920;-82
2023/06/20 07:39:30;;;;;;;;;;;;;;;25.57;53.69;100950.59;5109629;28;19924;-80
2023/06/20 07:41:55;;;;;;;;;;;;;;;25.65;55.57;100945.38;5112234;28;20405;-80
2023/06/20 07:44:21;;;;;;;;;;;;;;;25.71;54.67;100947.56;5112460;28;19916;-80
2023/06/20 07:46:46;;;;;;;;;;;;;;;25.78;54.69;100939.78;5112149;28;20010;-80
2023/06/20 07:49:12;;;;;;;;;;;;;;;25.84;54.63;100931.13;5112303;28;19920;-80
2023/06/20 07:51:40;;;;;;;;;;;;;;;25.87;54.59;100924.63;5112160;28;19970;-81
2023/06/20 07:54:05;;;;;;;;;;;;;;;25.95;54.49;100920.25;5110866;28;20022;-80
2023/06/20 07:56:31;;;;;;;;;;;;;;;26.07;53.76;100917.47;5112029;28;20025;-80
2023/06/20 07:58:56;;;;;;;;;;;;;;;26.13;54.14;100939.50;5111702;28;20369;-79
2023/06/20 08:01:22;;;;;;;;;;;;;;;26.24;53.72;100937.75;5110643;28;19920;-81
2023/06/20 08:03:48;;;;;;;;;;;;;;;26.41;53.99;100945.28;5111917;28;20003;-80
2023/06/20 08:06:13;;;;;;;;;;;;;;;26.47;53.36;100947.44;5111992;28;19950;-80
2023/06/20 08:08:39;;;;;;;;;;;;;;;26.60;53.62;100952.69;5110651;28;20319;-80
2023/06/20 08:11:04;;;;;;;;;;;;;;;26.68;52.75;100936.59;5112196;28;19919;-80
2023/06/20 08:13:33;;;;;;;;;;;;;;;26.73;52.35;100939.78;5112399;28;19920;-79
2023/06/20 08:15:58;;;;;;;;;;;;;;;26.77;52.35;100945.78;5109597;28;19916;-80
2023/06/20 08:18:23;;;;;;;;;;;;;;;26.77;52.96;100951.22;5103411;28;19926;-79
2023/06/20 08:20:49;;;;;;;;;;;;;;;26.78;52.30;100945.66;5114934;28;20004;-79
2023/06/20 08:23:21;;;;;;;;;;;;;;;26.76;52.26;100939.50;5105947;28;19992;-79
2023/06/20 08:25:47;;;;;;;;;;;;;;;26.77;52.59;100932.19;5106346;28;19976;-80
2023/06/20 08:28:12;;;;;;;;;;;;;;;26.86;52.49;100942.25;5111065;28;19924;-79
2023/06/20 08:30:38;;;;;;;;;;;;;;;26.98;53.09;100943.03;5110822;28;19926;-81
2023/06/20 08:33:03;;;;;;;;;;;;;;;27.10;52.03;100936.47;5109478;28;20056;-79
2023/06/20 08:35:28;;;;;;;;;;;;;;;27.29;52.19;100943.00;5109283;28;19919;-80
2023/06/20 08:37:54;;;;;;;;;;;;;;;27.45;51.30;100935.16;5110978;28;19954;-81
2023/06/20 08:40:19;;;;;;;;;;;;;;;27.51;51.06;100941.88;5109907;28;19927;-80
2023/06/20 08:42:45;;;;;;;;;;;;;;;27.60;51.16;100941.06;5102875;28;19989;-80
2023/06/20 08:45:11;;;;;;;;;;;;;;;27.75;50.53;100945.06;5104457;28;19942;-80
2023/06/20 08:47:37;;;;;;;;;;;;;;;27.80;50.60;100934.59;5111320;28;19931;-81
2023/06/20 08:50:02;;;;;;;;;;;;;;;27.84;50.77;100933.34;5099239;28;19942;-80
2023/06/20 08:52:29;;;;;;;;;;;;;;;27.94;50.25;100938.78;5100790;28;20299;-81
2023/06/20 08:54:54;;;;;;;;;;;;;;;27.97;50.22;100922.19;5099770;28;19991;-76
2023/06/20 08:57:20;;;;;;;;;;;;;;;27.94;49.62;100927.88;5106648;28;20424;-79
2023/06/20 08:59:45;;;;;;;;;;;;;;;28.01;49.88;100934.47;5106821;28;19989;-80
2023/06/20 09:02:11;;;;;;;;;;;;;;;28.17;49.79;100939.34;5096705;28;19920;-78
2023/06/20 09:04:36;;;;;;;;;;;;;;;28.21;48.12;100934.44;5109967;28;20053;-82
2023/06/20 09:07:02;;;;;;;;;;;;;;;28.09;49.21;100937.34;5097004;28;19916;-79
2023/06/20 09:09:27;;;;;;;;;;;;;;;28.11;49.30;100928.16;5109670;28;19927;-79
2023/06/20 09:11:57;;;;;;;;;;;;;;;28.27;49.06;100932.00;5092661;28;19932;-80
2023/06/20 09:14:29;;;;;;;;;;;;;;;28.34;48.68;100929.56;5110905;28;19915;-79
2023/06/20 09:16:55;;;;;;;;;;;;;;;28.29;49.01;100926.44;5111691;28;19961;-79
2023/06/20 09:19:21;;;;;;;;;;;;;;;28.36;49.23;100924.81;5105550;28;20266;-80
2023/06/20 09:21:47;;;;;;;;;;;;;;;28.36;48.84;100930.25;5100063;28;20391;-79
2023/06/20 09:24:15;;;;;;;;;;;;;;;28.34;48.90;100935.03;5106806;28;20023;-78
2023/06/20 09:26:40;;;;;;;;;;;;;;;28.37;48.63;100936.59;5111039;28;19973;-80
2023/06/20 09:29:14;;;;;;;;;;;;;;;28.39;48.67;100935.44;5109492;28;19938;-80
2023/06/20 09:31:49;;;;;;;;;;;;;;;28.54;48.64;100940.41;5111304;28;20276;-78
2023/06/20 09:34:16;;;;;;;;;;;;;;;28.62;48.23;100941.41;5111355;28;19916;-80
2023/06/20 09:36:42;;;;;;;;;;;;;;;28.60;48.59;100943.41;5116889;28;19926;-79
2023/06/20 09:39:12;;;;;;;;;;;;;;;28.60;48.09;100948.03;5117147;28;19912;-80
2023/06/20 09:41:45;;;;;;;;;;;;;;;28.55;48.05;100953.91;5125753;28;19923;-81
2023/06/20 09:44:11;;;;;;;;;;;;;;;28.72;48.53;100938.66;5111261;28;20448;-83
2023/06/20 09:46:36;;;;;;;;;;;;;;;28.88;47.82;100936.16;5114864;28;19974;-79
2023/06/20 09:49:03;;;;;;;;;;;;;;;29.09;47.39;100925.03;5113660;28;19959;-81
2023/06/20 09:51:30;;;;;;;;;;;;;;;29.35;46.78;100935.19;5113674;28;19923;-80
2023/06/20 09:54:03;;;;;;;;;;;;;;;29.48;46.10;100937.56;5115218;28;19920;-82
2023/06/20 09:56:29;;;;;;;;;;;;;;;29.35;45.92;100941.53;5114760;28;19916;-81
2023/06/20 09:58:59;;;;;;;;;;;;;;;29.21;47.01;100938.47;5113487;28;19911;-80
2023/06/20 10:01:26;;;;;;;;;;;;;;;29.31;45.64;100937.38;5114877;28;19927;-83
2023/06/20 10:03:52;;;;;;;;;;;;;;;29.36;46.19;100939.66;5114525;28;20037;-80
2023/06/20 10:06:18;;;;;;;;;;;;;;;29.52;45.61;100936.22;5114658;28;19965;-79
2023/06/20 10:08:44;;;;;;;;;;;;;;;29.55;44.93;100936.81;5114134;28;19923;-80
2023/06/20 10:11:10;;;;;;;;;;;;;;;29.58;45.14;100938.38;5099520;28;19920;-79
2023/06/20 10:13:35;;;;;;;;;;;;;;;29.69;44.81;100929.09;5113052;28;19938;-80
2023/06/20 10:16:01;;;;;;;;;;;;;;;29.86;44.45;100924.66;5114911;28;19920;-81
2023/06/20 10:18:32;;;;;;;;;;;;;;;29.94;44.54;100922.00;5114830;27;19916;-81
2023/06/20 10:21:01;;;;;;;;;;;;;;;29.95;44.94;100924.59;5111929;28;19919;-79
2023/06/20 10:23:30;;;;;;;;;;;;;;;30.09;44.11;100920.41;5107801;28;19924;-82
2023/06/20 10:26:02;;;;;;;;;;;;;;;30.05;44.45;100915.44;5113598;28;20474;-81
2023/06/20 10:28:27;;;;;;;;;;;;;;;30.21;44.10;100902.75;5114411;28;19926;-75
2023/06/20 10:30:57;;;;;;;;;;;;;;;30.24;44.47;100904.28;5113597;28;19916;-75
2023/06/20 10:33:28;;;;;;;;;;;;;;;30.42;43.00;100898.84;5114203;28;19916;-75
2023/06/20 10:36:04;;;;;;;;;;;;;;;30.41;43.28;100899.84;5112861;28;19994;-75
2023/06/20 10:38:57;;;;;;;;;;;;;;;30.32;43.45;100898.09;5106973;28;19951;-75
2023/06/20 10:41:27;;;;;;;;;;;;;;;30.49;41.70;100888.09;5091568;28;19927;-75
2023/06/20 10:43:53;;;;;;;;;;;;;;;30.57;42.22;100885.44;5113508;28;20039;-75
2023/06/20 10:46:28;;;;;;;;;;;;;;;30.66;42.75;100881.69;5111722;28;19912;-75
2023/06/20 10:48:53;;;;;;;;;;;;;;;30.86;42.91;100890.53;5112220;28;20402;-75
2023/06/20 10:51:18;;;;;;;;;;;;;;;30.99;41.71;100880.00;5113662;27;19929;-75
2023/06/20 10:53:44;;;;;;;;;;;;;;;31.13;41.54;100869.44;5111583;28;19919;-75
2023/06/20 10:56:20;;;;;;;;;;;;;;;31.33;41.62;100873.59;5094689;28;19945;-76
2023/06/20 10:58:47;;;;;;;;;;;;;;;31.46;39.20;100860.28;5099120;28;19916;-75
2023/06/20 11:01:15;;;;;;;;;;;;;;;31.35;40.45;100857.00;5110758;28;19919;-75
2023/06/20 11:03:40;;;;;;;;;;;;;;;31.29;41.10;100861.25;5112775;28;20034;-75
2023/06/20 11:06:05;;;;;;;;;;;;;;;31.37;39.74;100850.31;5112904;28;20014;-75
2023/06/20 11:08:31;;;;;;;;;;;;;;;31.44;40.25;100856.00;5111505;28;19968;-75
2023/06/20 11:10:57;;;;;;;;;;;;;;;31.68;38.86;100841.50;5094185;28;20022;-75
2023/06/20 11:13:23;;;;;;;;;;;;;;;31.81;39.96;100838.22;5091160;28;19920;-76
2023/06/20 11:15:49;;;;;;;;;;;;;;;32.07;39.92;100844.41;5109659;28;19935;-75
2023/06/20 11:18:14;;;;;;;;;;;;;;;32.29;38.52;100856.47;5112899;28;19916;-75
2023/06/20 11:20:40;;;;;;;;;;;;;;;32.26;37.72;100854.09;5110617;28;19927;-76
2023/06/20 11:23:07;;;;;;;;;;;;;;;32.30;37.00;100850.00;5105375;28;19919;-75
2023/06/20 11:25:33;;;;;;;;;;;;;;;32.20;37.59;100853.97;5110869;28;19924;-75
2023/06/20 11:28:09;;;;;;;;;;;;;;;32.20;36.19;100852.06;5111733;28;19923;-76
2023/06/20 11:30:35;;;;;;;;;;;;;;;32.36;38.26;100842.94;5112311;28;20299;-76
2023/06/20 11:33:14;;;;;;;;;;;;;;;32.64;35.82;100839.78;5111117;27;20002;-75
2023/06/20 11:35:41;;;;;;;;;;;;;;;32.71;35.93;100835.31;5110443;28;19968;-75
2023/06/20 11:38:08;;;;;;;;;;;;;;;32.86;37.01;100832.66;5109340;28;19915;-76
2023/06/20 11:40:33;;;;;;;;;;;;;;;33.10;36.31;100832.53;5111296;28;19923;-76
2023/06/20 11:42:58;;;;;;;;;;;;;;;33.23;36.40;100840.19;5095998;28;19916;-75
2023/06/20 11:45:25;;;;;;;;;;;;;;;33.42;33.45;100841.59;5102850;28;19919;-81
2023/06/20 11:48:09;;;;;;;;;;;;;;;33.42;35.57;100827.88;5145402;27;20429;-80
2023/06/20 11:50:36;;;;;;;;;;;;;;;33.41;36.27;100831.66;5075626;28;20041;-81
2023/06/20 11:53:03;;;;;;;;;;;;;;;33.44;34.27;100839.53;5110219;28;19915;-81
2023/06/20 11:56:04;;;;;;;;;;;;;;;33.37;33.64;100828.41;5110543;28;19965;-79
2023/06/20 11:58:38;;;;;;;;;;;;;;;33.60;35.21;100819.34;5090994;28;19923;-80
2023/06/20 12:01:10;;;;;;;;;;;;;;;33.70;32.96;100821.84;5098763;28;20026;-81
2023/06/20 12:03:37;;;;;;;;;;;;;;;33.68;33.64;100826.66;5098735;28;19966;-80
2023/06/20 12:06:03;;;;;;;;;;;;;;;33.69;34.44;100825.63;5096150;28;20318;-80
2023/06/20 12:08:34;;;;;;;;;;;;;;;33.84;33.61;100816.38;5098708;28;19981;-80
2023/06/20 12:11:00;;;;;;;;;;;;;;;34.07;34.36;100809.97;5104340;28;19916;-81
2023/06/20 12:13:26;;;;;;;;;;;;;;;34.32;33.04;100812.47;5109023;28;19923;-79
2023/06/20 12:15:52;;;;;;;;;;;;;;;34.37;33.44;100821.88;5097928;28;19920;-79
2023/06/20 12:18:17;;;;;;;;;;;;;;;34.36;33.20;100827.53;5097126;28;19951;-78
2023/06/20 12:20:43;;;;;;;;;;;;;;;34.21;32.63;100822.03;5102410;28;19935;-79
2023/06/20 12:23:08;;;;;;;;;;;;;;;34.21;33.00;100816.53;5097402;28;20368;-78
2023/06/20 12:25:34;;;;;;;;;;;;;;;34.43;34.35;100817.50;5094420;28;20398;-79
2023/06/20 12:28:00;;;;;;;;;;;;;;;34.65;32.55;100823.94;5108065;28;19927;-81
2023/06/20 12:30:26;;;;;;;;;;;;;;;34.48;31.02;100815.88;5109994;28;19916;-82
2023/06/20 12:32:51;;;;;;;;;;;;;;;34.24;31.73;100810.66;5108873;28;19916;-79
2023/06/20 12:35:16;;;;;;;;;;;;;;;34.19;33.05;100804.88;5096936;28;19919;-79